createdAt,value
2017-08-27T00:00:03.021Z,1016.08
2017-08-27T00:05:02.827Z,1016.05
2017-08-27T00:10:03.317Z,1016.1
2017-08-27T00:15:02.812Z,1016.04
2017-08-27T00:20:03.329Z,1016.03
2017-08-27T00:25:02.774Z,1016.02
2017-08-27T00:30:03.166Z,1016.06
2017-08-27T00:35:02.657Z,1016.13
2017-08-27T00:40:03.205Z,1016.19
2017-08-27T00:45:03.569Z,1016.28
2017-08-27T00:50:02.974Z,1016.37
2017-08-27T00:55:03.382Z,1016.41
2017-08-27T01:00:02.825Z,1016.48
2017-08-27T01:05:03.347Z,1016.5
2017-08-27T01:10:02.901Z,1016.52
2017-08-27T01:15:03.360Z,1016.51
2017-08-27T01:20:02.818Z,1016.51
2017-08-27T01:25:03.201Z,1016.54
2017-08-27T01:30:02.746Z,1016.52
2017-08-27T01:35:03.130Z,1016.49
2017-08-27T01:40:03.581Z,1016.56
2017-08-27T01:45:03.103Z,1016.62
2017-08-27T01:50:02.638Z,1016.72
2017-08-27T01:55:03.053Z,1016.68
2017-08-27T02:00:03.544Z,1016.73
2017-08-27T02:05:03.078Z,1016.7
2017-08-27T02:10:03.592Z,1016.68
2017-08-27T02:15:03.176Z,1016.68
2017-08-27T02:20:03.562Z,1016.68
2017-08-27T02:25:03.010Z,1016.65
2017-08-27T02:30:03.492Z,1016.69
2017-08-27T02:35:02.955Z,1016.6
2017-08-27T02:40:03.568Z,1016.62
2017-08-27T02:45:03.160Z,1016.72
2017-08-27T02:50:02.718Z,1016.88
2017-08-27T02:55:03.242Z,1016.9
2017-08-27T03:00:02.783Z,1016.91
2017-08-27T03:05:03.266Z,1016.9
2017-08-27T03:10:02.953Z,1016.91
2017-08-27T03:15:03.544Z,1016.88
2017-08-27T03:20:03.155Z,1016.85
2017-08-27T03:25:02.683Z,1016.84
2017-08-27T03:30:03.287Z,1016.84
2017-08-27T03:35:02.854Z,1016.98
2017-08-27T03:40:03.317Z,1016.84
2017-08-27T03:45:02.874Z,1016.83
2017-08-27T03:50:03.230Z,1016.8
2017-08-27T03:55:02.782Z,1016.9
2017-08-27T04:00:03.279Z,1016.9
2017-08-27T04:05:02.929Z,1017
2017-08-27T04:10:03.621Z,1016.98
2017-08-27T04:15:03.177Z,1017.01
2017-08-27T04:20:03.553Z,1017.05
2017-08-27T04:25:03.131Z,1017.06
2017-08-27T04:30:03.485Z,1017.06
2017-08-27T04:35:03.010Z,1017.06
2017-08-27T04:40:03.439Z,1017.2
2017-08-27T04:45:03.016Z,1017.21
2017-08-27T04:50:03.103Z,1017.31
2017-08-27T04:55:03.449Z,1017.34
2017-08-27T05:00:02.823Z,1017.44
2017-08-27T05:05:03.228Z,1017.51
2017-08-27T05:10:02.853Z,1017.42
2017-08-27T05:15:03.405Z,1017.48
2017-08-27T05:20:02.759Z,1017.43
2017-08-27T05:25:03.155Z,1017.46
2017-08-27T05:30:03.586Z,1017.46
2017-08-27T05:35:03.105Z,1017.57
2017-08-27T05:40:02.696Z,1017.55
2017-08-27T05:45:03.054Z,1017.58
2017-08-27T05:50:03.580Z,1017.61
2017-08-27T05:55:02.949Z,1017.65
2017-08-27T06:00:03.515Z,1017.64
2017-08-27T06:05:02.907Z,1017.64
2017-08-27T06:10:03.487Z,1017.84
2017-08-27T06:15:02.984Z,1017.84
2017-08-27T06:20:03.530Z,1017.81
2017-08-27T06:25:02.920Z,1017.84
2017-08-27T06:30:03.387Z,1017.83
2017-08-27T06:35:02.732Z,1017.92
2017-08-27T06:40:03.199Z,1017.89
2017-08-27T06:45:03.578Z,1017.92
2017-08-27T06:50:03.025Z,1017.99
2017-08-27T06:55:03.446Z,1017.98
2017-08-27T07:00:03.406Z,1018.05
2017-08-27T07:05:02.949Z,1018.12
2017-08-27T07:10:03.546Z,1018.2
2017-08-27T07:15:03.100Z,1018.34
2017-08-27T07:20:03.495Z,1018.3
2017-08-27T07:25:02.930Z,1018.35
2017-08-27T07:30:03.441Z,1018.36
2017-08-27T07:35:02.975Z,1018.49
2017-08-27T07:40:03.369Z,1018.52
2017-08-27T07:45:02.796Z,1018.53
2017-08-27T07:50:03.204Z,1018.57
2017-08-27T08:00:03.209Z,1018.81
2017-08-27T08:05:02.743Z,1018.8
2017-08-27T08:10:03.364Z,1018.81
2017-08-27T08:15:02.923Z,1018.75
2017-08-27T08:20:03.520Z,1018.87
2017-08-27T08:25:03.154Z,1018.86
2017-08-27T08:30:02.714Z,1018.84
2017-08-27T08:35:03.114Z,1018.87
2017-08-27T08:40:02.617Z,1018.9
2017-08-27T08:45:03.099Z,1018.93
2017-08-27T08:50:02.708Z,1018.92
2017-08-27T08:55:03.255Z,1018.97
2017-08-27T09:00:02.692Z,1018.98
2017-08-27T09:05:03.103Z,1018.99
2017-08-27T09:10:03.510Z,1018.97
2017-08-27T09:15:03.047Z,1018.88
2017-08-27T09:20:03.610Z,1018.94
2017-08-27T09:25:02.969Z,1018.92
2017-08-27T09:30:03.539Z,1018.96
2017-08-27T09:35:02.940Z,1018.93
2017-08-27T09:40:03.407Z,1018.89
2017-08-27T09:45:02.809Z,1018.88
2017-08-27T09:50:03.450Z,1018.82
2017-08-27T09:55:02.829Z,1018.81
2017-08-27T10:00:03.352Z,1018.81
2017-08-27T10:05:02.707Z,1018.83
2017-08-27T10:10:03.409Z,1018.87
2017-08-27T10:15:02.789Z,1018.94
2017-08-27T10:20:03.344Z,1018.94
2017-08-27T10:25:02.720Z,1018.91
2017-08-27T10:30:03.304Z,1018.94
2017-08-27T10:35:02.865Z,1018.95
2017-08-27T10:40:03.298Z,1018.85
2017-08-27T10:45:02.888Z,1018.82
2017-08-27T10:50:03.519Z,1018.76
2017-08-27T10:55:03.033Z,1018.84
2017-08-27T11:00:02.684Z,1018.84
2017-08-27T11:05:03.264Z,1018.82
2017-08-27T11:10:02.878Z,1018.89
2017-08-27T11:15:03.437Z,1018.76
2017-08-27T11:20:03.048Z,1018.76
2017-08-27T11:25:03.644Z,1018.69
2017-08-27T11:30:03.334Z,1018.7
2017-08-27T11:35:02.856Z,1018.55
2017-08-27T11:40:03.357Z,1018.51
2017-08-27T11:45:02.773Z,1018.49
2017-08-27T11:50:03.324Z,1018.49
2017-08-27T11:55:02.669Z,1018.51
2017-08-27T12:00:03.192Z,1018.49
2017-08-27T12:05:03.563Z,1018.47
2017-08-27T12:10:02.956Z,1018.48
2017-08-27T12:15:03.520Z,1018.36
2017-08-27T12:20:02.858Z,1018.38
2017-08-27T12:25:03.442Z,1018.39
2017-08-27T12:30:02.999Z,1018.49
2017-08-27T12:35:03.525Z,1018.46
2017-08-27T12:40:03.091Z,1018.45
2017-08-27T12:45:03.557Z,1018.43
2017-08-27T12:50:03.074Z,1018.44
2017-08-27T12:55:03.586Z,1018.4
2017-08-27T13:00:02.956Z,1018.36
2017-08-27T13:05:03.383Z,1018.29
2017-08-27T13:10:02.972Z,1018.32
2017-08-27T13:15:03.497Z,1018.28
2017-08-27T13:20:03.043Z,1018.34
2017-08-27T13:25:03.426Z,1018.33
2017-08-27T13:30:02.908Z,1018.28
2017-08-27T13:35:03.445Z,1018.29
2017-08-27T13:40:02.847Z,1018.27
2017-08-27T13:45:03.260Z,1018.34
2017-08-27T13:50:02.727Z,1018.24
2017-08-27T13:55:03.337Z,1018.37
2017-08-27T14:00:02.911Z,1018.36
2017-08-27T14:05:03.386Z,1018.35
2017-08-27T14:10:02.757Z,1018.28
2017-08-27T14:15:03.156Z,1018.3
2017-08-27T14:20:02.664Z,1018.34
2017-08-27T14:25:03.024Z,1018.26
2017-08-27T14:30:03.595Z,1018.21
2017-08-27T14:35:02.991Z,1018.27
2017-08-27T14:40:03.537Z,1018.26
2017-08-27T14:45:02.928Z,1018.21
2017-08-27T14:50:03.497Z,1018.25
2017-08-27T14:55:03.072Z,1018.2
2017-08-27T15:00:03.483Z,1018.19
2017-08-27T15:05:03.110Z,1018.19
2017-08-27T15:10:02.751Z,1018.26
2017-08-27T15:15:03.276Z,1018.27
2017-08-27T15:20:02.854Z,1018.16
2017-08-27T15:25:03.320Z,1018.2
2017-08-27T15:30:02.801Z,1018.27
2017-08-27T15:35:03.160Z,1018.27
2017-08-27T15:40:03.590Z,1018.25
2017-08-27T15:45:02.945Z,1018.21
2017-08-27T15:50:03.377Z,1018.18
2017-08-27T15:55:02.881Z,1018.14
2017-08-27T16:00:03.379Z,1018.17
2017-08-27T16:05:02.887Z,1018.12
2017-08-27T16:10:03.505Z,1018.13
2017-08-27T16:15:02.880Z,1018.06
2017-08-27T16:20:03.319Z,1018.06
2017-08-27T16:25:02.854Z,1018.04
2017-08-27T16:30:03.491Z,1018.08
2017-08-27T16:35:02.863Z,1018.07
2017-08-27T16:40:03.486Z,1018.07
2017-08-27T16:45:02.996Z,1018.12
2017-08-27T16:50:03.532Z,1018.07
2017-08-27T16:55:03.022Z,1018.08
2017-08-27T17:00:03.602Z,1017.93
2017-08-27T17:05:03.089Z,1017.98
2017-08-27T17:10:02.680Z,1017.99
2017-08-27T17:15:03.288Z,1018.02
2017-08-27T17:20:02.794Z,1018.05
2017-08-27T17:25:03.385Z,1017.95
2017-08-27T17:30:02.911Z,1017.91
2017-08-27T17:35:03.366Z,1017.98
2017-08-27T17:40:02.970Z,1017.9
2017-08-27T17:45:03.561Z,1017.97
2017-08-27T17:50:03.044Z,1018.03
2017-08-27T17:55:03.636Z,1018.11
2017-08-27T18:00:03.028Z,1018.19
2017-08-27T18:05:03.532Z,1018.14
2017-08-27T18:10:02.934Z,1018.17
2017-08-27T18:15:03.498Z,1018.2
2017-08-27T18:20:03.014Z,1018.3
2017-08-27T18:25:03.799Z,1018.19
2017-08-27T18:30:03.314Z,1018.22
2017-08-27T18:35:02.734Z,1018.16
2017-08-27T18:40:03.312Z,1018.24
2017-08-27T18:45:02.633Z,1018.37
2017-08-27T18:50:03.050Z,1018.39
2017-08-27T18:55:03.576Z,1018.39
2017-08-27T19:00:02.945Z,1018.45
2017-08-27T19:05:03.526Z,1018.57
2017-08-27T19:10:02.964Z,1018.69
2017-08-27T19:15:03.475Z,1018.75
2017-08-27T19:20:02.866Z,1018.76
2017-08-27T19:25:03.407Z,1018.83
2017-08-27T19:30:02.879Z,1018.91
2017-08-27T19:35:03.434Z,1018.94
2017-08-27T19:40:03.030Z,1018.91
2017-08-27T19:45:03.505Z,1018.9
2017-08-27T19:50:03.235Z,1018.93
2017-08-27T19:55:02.621Z,1018.9
2017-08-27T20:00:03.003Z,1018.92
2017-08-27T20:05:03.404Z,1018.93
2017-08-27T20:10:02.808Z,1019.03
2017-08-27T20:15:03.316Z,1019.14
2017-08-27T20:20:02.761Z,1019.19
2017-08-27T20:25:03.271Z,1019.18
2017-08-27T20:30:02.857Z,1019.14
2017-08-27T20:35:03.418Z,1019.12
2017-08-27T20:40:03.017Z,1019.09
2017-08-27T20:45:03.597Z,1019.16
2017-08-27T20:50:03.119Z,1019.11
2017-08-27T20:55:03.646Z,1019.12
2017-08-27T21:00:03.136Z,1019.11
2017-08-27T21:05:02.673Z,1019.12
2017-08-27T21:10:03.278Z,1019.1
2017-08-27T21:15:02.906Z,1019.14
2017-08-27T21:20:03.256Z,1019.12
2017-08-27T21:25:03.610Z,1019.07
2017-08-27T21:30:03.290Z,1019.04
2017-08-27T21:35:02.850Z,1019.09
2017-08-27T21:40:03.389Z,1019.05
2017-08-27T21:45:02.795Z,1019.11
2017-08-27T21:50:03.354Z,1019.17
2017-08-27T21:55:02.855Z,1019.15
2017-08-27T22:00:03.238Z,1019.21
2017-08-27T22:05:02.642Z,1019.17
2017-08-27T22:10:03.146Z,1019.26
2017-08-27T22:15:03.583Z,1019.33
2017-08-27T22:20:03.177Z,1019.36
2017-08-27T22:25:03.607Z,1019.33
2017-08-27T22:30:03.029Z,1019.35
2017-08-27T22:35:03.589Z,1019.37
2017-08-27T22:40:03.163Z,1019.35
2017-08-27T22:45:03.542Z,1019.31
2017-08-27T22:50:02.941Z,1019.29
2017-08-27T22:55:03.294Z,1019.33
2017-08-27T23:00:02.959Z,1019.27
2017-08-27T23:05:02.795Z,1019.28
2017-08-27T23:10:03.390Z,1019.2
2017-08-27T23:15:02.930Z,1019.14
2017-08-27T23:20:03.356Z,1019.12
2017-08-27T23:25:02.943Z,1019.12
2017-08-27T23:30:03.494Z,1019.14
2017-08-27T23:35:03.049Z,1019.11
2017-08-27T23:40:02.682Z,1019.16
2017-08-27T23:45:03.247Z,1019.19
2017-08-27T23:50:02.663Z,1019.27
2017-08-27T23:55:03.171Z,1019.23
